Time;durP1;ratioP1;P1;durP2;ratioP2;P2;SDS_P1;SDS_P2;PMS_P1;PMS_P2;Temp;Humidity;BMP_temperature;BMP_pressure;BME280_temperature;BME280_humidity;BME280_pressure;Samples;Min_cycle;Max_cycle;Signal;HPM_P1;HPM_P2
2022/06/14 00:03:17;;;;;;;10.10;2.30;;;;;;;12.74;75.71;102571.38;6238285;23;20396;-67
2022/06/14 00:05:42;;;;;;;8.32;2.05;;;;;;;12.70;75.96;102570.53;6211268;23;20004;-67
2022/06/14 00:08:08;;;;;;;9.93;2.05;;;;;;;12.64;76.39;102574.16;6238660;23;20008;-67
2022/06/14 00:10:34;;;;;;;8.60;2.53;;;;;;;12.60;76.68;102575.13;6239426;23;20089;-67
2022/06/14 00:12:59;;;;;;;5.57;1.92;;;;;;;12.56;77.53;102586.63;6239016;23;20086;-67
2022/06/14 00:15:25;;;;;;;11.10;2.10;;;;;;;12.59;77.62;102573.38;6237550;23;20007;-67
2022/06/14 00:17:50;;;;;;;11.30;2.05;;;;;;;12.62;77.71;102572.44;6238297;23;20145;-67
2022/06/14 00:20:15;;;;;;;10.15;2.45;;;;;;;12.61;77.74;102574.19;6209240;23;20020;-66
2022/06/14 00:22:41;;;;;;;8.40;2.00;;;;;;;12.59;78.09;102572.50;6239129;23;20031;-66
2022/06/14 00:25:07;;;;;;;10.02;2.42;;;;;;;12.59;78.21;102577.78;6211618;23;20030;-68
2022/06/14 00:27:32;;;;;;;14.95;3.45;;;;;;;12.56;78.40;102573.41;6239165;23;20008;-67
2022/06/14 00:29:57;;;;;;;7.85;2.53;;;;;;;12.55;78.37;102581.38;6238178;23;20418;-67
2022/06/14 00:32:23;;;;;;;13.60;2.33;;;;;;;12.51;78.32;102575.25;6238969;23;20588;-68
2022/06/14 00:34:48;;;;;;;7.30;2.00;;;;;;;12.52;78.77;102571.69;6236947;23;20562;-68
2022/06/14 00:37:17;;;;;;;8.40;3.03;;;;;;;12.50;78.78;102562.91;6237597;23;20428;-68
2022/06/14 00:39:42;;;;;;;9.90;2.75;;;;;;;12.50;78.83;102562.91;6237972;23;20476;-67
2022/06/14 00:42:20;;;;;;;10.85;2.10;;;;;;;12.49;79.29;102574.38;6238205;23;20008;-68
2022/06/14 00:45:03;;;;;;;9.88;2.47;;;;;;;12.44;78.93;102569.19;6237632;23;20023;-67
2022/06/14 00:47:29;;;;;;;6.13;2.25;;;;;;;12.41;79.24;102566.56;6237699;23;20004;-66
2022/06/14 00:49:58;;;;;;;12.38;2.78;;;;;;;12.40;79.23;102566.59;6235862;23;20298;-66
2022/06/14 00:52:28;;;;;;;10.52;2.33;;;;;;;12.34;79.66;102568.41;6185372;23;20661;-67
2022/06/14 00:54:57;;;;;;;5.53;2.50;;;;;;;12.36;79.39;102566.63;6237327;23;20015;-68
2022/06/14 00:57:27;;;;;;;10.75;2.88;;;;;;;12.35;79.99;102566.66;6236322;23;20400;-67
2022/06/14 01:00:08;;;;;;;10.43;2.75;;;;;;;12.42;79.45;102559.50;6237956;23;20005;-68
2022/06/14 01:02:37;;;;;;;9.32;2.60;;;;;;;12.47;78.71;102552.38;6238037;23;20004;-67
2022/06/14 01:05:05;;;;;;;7.75;2.40;;;;;;;12.56;78.22;102541.69;6235322;23;20004;-68
2022/06/14 01:07:35;;;;;;;9.33;2.20;;;;;;;12.62;76.74;102546.00;6212281;23;20087;-67
2022/06/14 01:10:02;;;;;;;14.57;2.72;;;;;;;12.60;76.76;102539.84;6238411;23;20711;-68
2022/06/14 01:12:34;;;;;;;17.42;2.60;;;;;;;12.61;76.87;102544.22;6235227;23;20483;-67
2022/06/14 01:15:13;;;;;;;10.13;2.28;;;;;;;12.66;75.71;102544.16;6238709;23;20004;-67
2022/06/14 01:17:43;;;;;;;8.52;2.15;;;;;;;12.68;74.74;102539.75;6210649;23;20026;-68
2022/06/14 01:20:10;;;;;;;6.10;2.15;;;;;;;12.67;74.93;102545.94;6211587;23;20004;-66
2022/06/14 01:22:36;;;;;;;8.25;1.83;;;;;;;12.70;74.45;102545.88;6237810;23;19992;-66
2022/06/14 01:25:02;;;;;;;6.30;1.88;;;;;;;12.75;73.42;102546.69;6237501;23;20015;-67
2022/06/14 01:27:32;;;;;;;8.50;1.90;;;;;;;12.77;72.74;102540.44;6210390;23;20009;-68
2022/06/14 01:30:04;;;;;;;3.97;1.80;;;;;;;12.80;72.21;102536.91;6238154;23;20004;-68
2022/06/14 01:32:31;;;;;;;9.70;2.08;;;;;;;12.80;72.32;102539.56;6241645;23;20324;-67
2022/06/14 01:35:00;;;;;;;6.43;1.85;;;;;;;12.74;72.00;102542.28;6240238;23;20425;-66
2022/06/14 01:37:25;;;;;;;11.75;2.30;;;;;;;12.70;72.46;102532.66;6236610;23;20007;-68
2022/06/14 01:39:53;;;;;;;5.63;2.05;;;;;;;12.59;73.42;102530.19;6211166;23;20008;-66
2022/06/14 01:42:26;;;;;;;9.77;2.38;;;;;;;12.49;74.80;102529.41;6237861;23;20022;-67
2022/06/14 01:45:23;;;;;;;6.32;2.25;;;;;;;12.43;75.29;102524.25;6237997;23;20416;-67
2022/06/14 01:47:56;;;;;;;7.18;1.60;;;;;;;12.41;75.50;102520.75;6236674;23;20008;-67
2022/06/14 01:53:33;;;;;;;6.55;1.88;;;;;;;12.24;76.01;102524.50;6238942;23;20031;-66
2022/06/14 01:56:25;;;;;;;9.05;2.00;;;;;;;12.19;76.12;102523.72;6237327;23;20055;-66
2022/06/14 01:59:05;;;;;;;7.65;2.03;;;;;;;12.19;76.22;102521.06;6176071;23;20035;-68
2022/06/14 02:01:30;;;;;;;;;;;;;;;12.16;76.22;102521.09;6238249;23;20074;-68
2022/06/14 02:07:25;;;;;;;5.10;2.22;;;;;;;12.11;76.10;102518.53;6238300;23;20344;-67
2022/06/14 02:10:24;;;;;;;13.23;2.20;;;;;;;12.02;76.28;102524.78;6212470;23;20324;-67
2022/06/14 02:12:59;;;;;;;;;;;;;;;12.02;76.78;102522.13;6239133;23;20012;-66
2022/06/14 02:15:34;;;;;;;8.13;2.22;;;;;;;12.01;76.81;102515.06;6238899;23;20076;-67
2022/06/14 02:18:10;;;;;;;6.07;1.95;;;;;;;11.99;76.61;102511.59;6211900;23;20429;-67
2022/06/14 02:20:45;;;;;;;5.65;1.90;;;;;;;11.98;77.06;102520.44;6239488;23;20000;-67
2022/06/14 02:23:11;;;;;;;5.53;1.80;;;;;;;11.95;77.33;102523.97;6213120;23;20011;-67
2022/06/14 02:25:45;;;;;;;5.28;1.98;;;;;;;11.93;77.89;102520.47;6240683;23;20405;-66
2022/06/14 02:28:18;;;;;;;8.85;2.08;;;;;;;11.92;78.50;102520.50;6239394;23;20011;-67
2022/06/14 02:30:59;;;;;;;5.90;2.00;;;;;;;11.90;78.39;102514.34;6212720;23;20014;-66
2022/06/14 02:33:45;;;;;;;6.88;2.53;;;;;;;11.85;78.66;102517.03;6236142;23;20014;-67
2022/06/14 02:36:30;;;;;;;9.75;2.40;;;;;;;11.81;79.01;102515.34;6211027;23;20119;-68
2022/06/14 02:39:16;;;;;;;5.57;2.53;;;;;;;11.81;79.17;102505.66;6212574;23;20004;-67
2022/06/14 02:42:07;;;;;;;9.35;2.28;;;;;;;11.81;79.46;102504.78;6238701;23;20433;-67
2022/06/14 02:44:48;;;;;;;6.43;2.20;;;;;;;11.81;79.59;102505.66;6238807;23;20011;-68
2022/06/14 02:47:28;;;;;;;8.75;2.40;;;;;;;11.80;80.26;102508.31;6212594;23;20054;-68
2022/06/14 02:49:58;;;;;;;;;;;;;;;11.78;80.35;102508.34;6211519;23;20088;-67
2022/06/14 02:52:31;;;;;;;9.80;2.92;;;;;;;11.77;80.54;102514.50;6239401;23;20233;-67
2022/06/14 02:54:59;;;;;;;8.80;2.67;;;;;;;11.75;80.55;102511.00;6238252;23;20075;-67
2022/06/14 02:57:34;;;;;;;6.35;2.75;;;;;;;11.73;81.06;102504.84;6239279;23;20062;-67
2022/06/14 03:00:11;;;;;;;8.35;3.10;;;;;;;11.72;81.45;102505.75;6240229;23;20000;-68
2022/06/14 03:02:38;;;;;;;7.47;3.28;;;;;;;11.72;81.54;102501.38;6238423;23;20457;-68
2022/06/14 03:05:13;;;;;;;9.40;4.15;;;;;;;11.72;82.01;102503.13;6238859;23;20306;-68
2022/06/14 03:07:49;;;;;;;9.77;3.28;;;;;;;11.71;81.67;102504.03;6238764;23;20453;-69
2022/06/14 03:10:14;;;;;;;7.88;2.85;;;;;;;11.70;81.90;102502.25;6238818;23;20000;-67
2022/06/14 03:13:01;;;;;;;12.10;2.95;;;;;;;11.68;82.07;102501.41;6237538;23;20330;-67
2022/06/14 03:15:35;;;;;;;7.00;2.80;;;;;;;11.67;82.19;102502.28;6238527;23;20302;-68
2022/06/14 03:18:09;;;;;;;6.38;2.90;;;;;;;11.67;82.14;102499.66;6213338;23;20097;-67
2022/06/14 03:20:59;;;;;;;11.48;3.67;;;;;;;11.65;82.15;102494.38;6238165;23;19996;-66
2022/06/14 03:23:47;;;;;;;12.80;3.08;;;;;;;11.65;81.86;102490.88;6239403;23;20004;-67
2022/06/14 03:26:26;;;;;;;11.10;3.27;;;;;;;11.59;82.25;102495.34;6236839;23;20008;-68
2022/06/14 03:28:59;;;;;;;8.73;3.50;;;;;;;11.62;82.16;102499.72;6239229;23;20245;-68
2022/06/14 03:31:48;;;;;;;9.73;2.63;;;;;;;11.61;82.20;102496.19;6212930;23;20011;-68
2022/06/14 03:34:40;;;;;;;7.90;2.83;;;;;;;11.59;82.35;102495.34;6211724;23;20000;-68
2022/06/14 03:37:05;;;;;;;13.32;3.67;;;;;;;11.61;82.02;102493.56;6237178;23;20086;-67
2022/06/14 03:39:34;;;;;;;11.88;3.10;;;;;;;11.64;82.26;102495.28;6239741;23;20368;-68
2022/06/14 03:42:01;;;;;;;9.73;3.28;;;;;;;11.67;82.21;102497.00;6239089;23;20812;-67
2022/06/14 03:44:28;;;;;;;9.07;2.80;;;;;;;11.67;81.79;102492.63;6238465;23;20424;-67
2022/06/14 03:47:23;;;;;;;9.18;3.75;;;;;;;11.72;82.15;102497.84;6212393;23;20004;-67
2022/06/14 03:49:53;;;;;;;8.05;3.42;;;;;;;11.77;81.72;102493.38;6234353;23;20012;-69
2022/06/14 03:52:46;;;;;;;10.32;2.75;;;;;;;11.77;81.81;102498.66;6239231;23;20051;-68
2022/06/14 03:55:30;;;;;;;8.60;2.75;;;;;;;11.77;81.61;102498.66;6223499;23;20038;-69
2022/06/14 03:58:13;;;;;;;10.82;3.47;;;;;;;11.81;81.64;102497.72;6238038;23;20004;-69
2022/06/14 04:01:11;;;;;;;11.30;3.72;;;;;;;11.81;81.88;102492.44;6239402;23;20084;-68
2022/06/14 04:03:40;;;;;;;5.80;2.78;;;;;;;11.87;81.48;102499.41;6160960;23;20039;-68
2022/06/14 04:06:36;;;;;;;7.53;2.90;;;;;;;11.90;81.72;102501.13;6238246;23;20000;-68
2022/06/14 04:09:12;;;;;;;6.75;3.10;;;;;;;11.96;81.67;102503.72;6238482;23;20636;-68
2022/06/14 04:11:58;;;;;;;8.50;3.15;;;;;;;11.97;81.43;102501.06;6238229;23;20012;-68
2022/06/14 04:14:39;;;;;;;10.77;3.63;;;;;;;11.98;81.46;102504.56;6212225;23;20028;-68
2022/06/14 04:17:13;;;;;;;6.18;3.47;;;;;;;11.99;81.44;102501.91;6238861;23;20424;-68
2022/06/14 04:20:11;;;;;;;9.68;2.97;;;;;;;12.04;81.41;102507.09;6237817;23;20004;-68
2022/06/14 04:23:00;;;;;;;8.57;3.20;;;;;;;12.08;81.23;102508.88;6171356;23;20500;-68
2022/06/14 04:25:25;;;;;;;;;;;;;;;12.13;81.25;102507.03;6239244;23;20000;-69
2022/06/14 04:28:01;;;;;;;5.77;2.93;;;;;;;12.22;81.22;102499.88;6238009;23;19923;-67
2022/06/14 04:30:35;;;;;;;9.10;3.45;;;;;;;12.28;81.24;102499.75;6237310;23;20325;-69
2022/06/14 04:33:07;;;;;;;9.38;2.83;;;;;;;12.32;81.30;102496.22;6211517;23;20004;-68
2022/06/14 04:35:38;;;;;;;7.93;3.50;;;;;;;12.39;81.58;102499.63;6238637;23;20345;-70
2022/06/14 04:38:09;;;;;;;13.48;3.80;;;;;;;12.50;81.03;102499.47;6238335;23;20008;-69
2022/06/14 04:40:42;;;;;;;6.80;2.92;;;;;;;12.58;80.92;102502.84;6211973;23;20004;-68
2022/06/14 04:43:13;;;;;;;10.55;3.80;;;;;;;12.73;80.20;102509.66;6235540;23;20050;-67
2022/06/14 04:45:43;;;;;;;10.98;3.63;;;;;;;12.80;80.21;102507.81;6238312;23;20443;-68
2022/06/14 04:48:16;;;;;;;12.50;3.83;;;;;;;12.86;80.36;102502.38;6210199;23;20083;-67
2022/06/14 04:50:46;;;;;;;8.93;3.42;;;;;;;12.94;79.84;102499.63;6235660;23;20007;-66
2022/06/14 04:53:16;;;;;;;11.65;3.50;;;;;;;13.03;79.43;102514.47;6235769;23;20014;-67
2022/06/14 04:55:50;;;;;;;10.52;3.42;;;;;;;13.18;78.72;102515.97;6211516;23;20075;-67
2022/06/14 04:58:51;;;;;;;9.95;3.15;;;;;;;13.35;77.98;102514.78;6209094;23;20020;-68
2022/06/14 05:01:24;;;;;;;8.18;2.78;;;;;;;13.49;77.04;102510.13;6209262;23;20011;-68
2022/06/14 05:04:04;;;;;;;11.80;3.67;;;;;;;13.64;76.43;102511.59;6233892;23;20088;-67
2022/06/14 05:06:34;;;;;;;7.38;2.75;;;;;;;13.72;75.13;102511.44;6185282;23;20012;-69
2022/06/14 05:09:09;;;;;;;8.10;2.70;;;;;;;13.85;74.30;102516.50;6237034;23;20024;-68
2022/06/14 05:11:42;;;;;;;6.15;2.53;;;;;;;13.96;73.27;102511.84;6237227;23;20015;-69
2022/06/14 05:14:21;;;;;;;9.23;2.90;;;;;;;14.13;72.43;102516.78;6235848;23;20000;-69
2022/06/14 05:16:50;;;;;;;10.05;2.63;;;;;;;14.25;72.13;102513.00;6237613;23;20012;-69
2022/06/14 05:19:33;;;;;;;;;;;;;;;14.39;71.13;102510.00;6233890;23;20480;-67
2022/06/14 05:22:30;;;;;;;9.88;2.67;;;;;;;14.51;70.30;102514.16;6238374;23;19907;-68
2022/06/14 05:24:56;;;;;;;10.70;2.67;;;;;;;14.62;69.75;102511.25;6236226;23;20030;-68
2022/06/14 05:27:32;;;;;;;12.82;2.70;;;;;;;14.72;69.49;102505.72;6210300;23;20012;-68
2022/06/14 05:30:14;;;;;;;8.13;2.40;;;;;;;14.87;68.77;102510.66;6237976;23;20004;-68
2022/06/14 05:32:55;;;;;;;13.77;3.05;;;;;;;14.89;68.11;102503.53;6210569;23;20071;-68
2022/06/14 05:35:38;;;;;;;9.45;2.70;;;;;;;14.97;68.11;102506.00;6213951;23;20000;-68
2022/06/14 05:38:25;;;;;;;12.18;2.88;;;;;;;15.05;68.73;102513.75;6241512;23;20008;-68
2022/06/14 05:41:00;;;;;;;8.60;2.63;;;;;;;15.20;67.60;102511.63;6240266;23;20502;-68
2022/06/14 05:43:30;;;;;;;5.47;2.10;;;;;;;15.26;66.95;102508.81;6210802;23;20078;-69
2022/06/14 05:46:00;;;;;;;7.13;1.98;;;;;;;15.38;65.90;102508.44;6237554;23;20153;-69
2022/06/14 05:48:31;;;;;;;8.48;2.28;;;;;;;15.47;65.34;102511.78;6233753;23;20056;-68
2022/06/14 05:50:58;;;;;;;8.73;3.10;;;;;;;15.51;64.95;102516.09;6211365;23;20015;-69
2022/06/14 05:54:00;;;;;;;8.85;2.60;;;;;;;15.58;64.84;102511.44;6237289;23;20008;-68
2022/06/14 05:56:45;;;;;;;12.00;2.72;;;;;;;15.63;65.08;102515.72;6238171;23;20015;-70
2022/06/14 05:59:37;;;;;;;5.03;2.17;;;;;;;15.76;65.36;102518.03;6211595;23;20011;-67
2022/06/14 06:02:11;;;;;;;12.55;3.10;;;;;;;15.85;65.66;102516.88;6212274;23;20070;-68
2022/06/14 06:04:56;;;;;;;10.15;3.22;;;;;;;15.90;63.96;102518.47;6211585;23;20004;-66
2022/06/14 06:07:25;;;;;;;7.53;2.40;;;;;;;16.03;63.96;102513.72;6213205;23;20012;-64
2022/06/14 06:10:06;;;;;;;8.70;2.80;;;;;;;16.02;63.10;102517.28;6240040;23;20004;-67
2022/06/14 06:12:40;;;;;;;8.98;2.55;;;;;;;16.12;63.34;102517.88;6213323;23;20012;-68
2022/06/14 06:15:19;;;;;;;6.15;2.00;;;;;;;16.25;60.88;102525.47;6236729;23;20075;-68
2022/06/14 06:17:53;;;;;;;8.07;2.45;;;;;;;16.34;60.40;102517.22;6237676;23;20000;-67
2022/06/14 06:20:43;;;;;;;9.25;3.03;;;;;;;16.46;59.62;102520.41;6237817;23;20076;-69
2022/06/14 06:23:49;;;;;;;10.93;2.55;;;;;;;16.39;59.43;102519.72;6239271;23;20011;-68
2022/06/14 06:26:16;;;;;;;16.10;2.50;;;;;;;16.65;59.39;102518.03;6239727;23;20007;-62
2022/06/14 06:28:51;;;;;;;6.65;2.38;;;;;;;16.86;59.09;102524.41;6212712;23;20004;-63
2022/06/14 06:31:23;;;;;;;6.60;2.10;;;;;;;17.01;58.20;102517.69;6238797;23;20007;-62
2022/06/14 06:33:50;;;;;;;7.00;2.45;;;;;;;17.16;56.78;102516.31;6237353;23;20008;-62
2022/06/14 06:36:28;;;;;;;10.77;2.95;;;;;;;17.18;57.04;102519.81;6210736;23;20000;-62
2022/06/14 06:39:05;;;;;;;7.82;2.20;;;;;;;17.42;56.97;102526.97;6238461;23;20088;-61
2022/06/14 06:41:51;;;;;;;5.90;1.98;;;;;;;17.68;55.76;102528.69;6213414;23;20004;-61
2022/06/14 06:44:31;;;;;;;4.95;2.05;;;;;;;17.68;54.77;102526.03;6239734;23;20006;-62
2022/06/14 06:47:11;;;;;;;4.47;1.60;;;;;;;17.76;55.32;102525.72;6212757;23;20008;-62
2022/06/14 06:49:47;;;;;;;4.78;1.67;;;;;;;17.93;54.95;102526.88;6212149;23;20023;-63
2022/06/14 06:52:12;;;;;;;8.90;2.30;;;;;;;17.93;55.78;102524.22;6238360;23;20008;-60
2022/06/14 06:54:44;;;;;;;3.60;1.50;;;;;;;18.09;55.91;102520.97;6212405;23;20001;-62
2022/06/14 06:57:18;;;;;;;6.50;1.70;;;;;;;18.19;54.37;102523.22;6237027;23;20008;-62
2022/06/14 06:59:46;;;;;;;7.05;1.85;;;;;;;18.29;53.80;102523.75;6238936;23;20411;-63
2022/06/14 07:02:16;;;;;;;7.65;1.80;;;;;;;18.20;54.93;102524.09;6211401;23;20004;-61
2022/06/14 07:07:47;;;;;;;6.78;1.50;;;;;;;18.26;51.95;102533.66;6236734;23;20429;-61
2022/06/14 07:10:16;;;;;;;3.13;1.40;;;;;;;18.24;51.48;102525.72;6238899;23;20141;-62
2022/06/14 07:12:48;;;;;;;5.47;1.77;;;;;;;18.21;52.33;102531.16;6239030;23;20107;-63
2022/06/14 07:15:26;;;;;;;5.93;1.35;;;;;;;18.49;51.75;102523.88;6236209;23;20049;-62
2022/06/14 07:18:21;;;;;;;5.65;2.20;;;;;;;18.41;51.55;102525.03;6210179;23;20008;-62
2022/06/14 07:20:58;;;;;;;4.40;1.25;;;;;;;18.46;51.34;102519.53;6229393;23;20008;-62
2022/06/14 07:23:32;;;;;;;6.13;1.45;;;;;;;18.40;52.33;102515.31;6237445;23;20004;-62
2022/06/14 07:26:05;;;;;;;2.63;1.20;;;;;;;18.33;51.76;102523.63;6239245;23;20004;-62
2022/06/14 07:28:37;;;;;;;3.38;1.30;;;;;;;18.44;51.26;102522.25;6212634;23;20035;-61
2022/06/14 07:31:06;;;;;;;6.40;1.15;;;;;;;18.44;51.14;102516.91;6211127;23;20440;-62
2022/06/14 07:33:32;;;;;;;4.57;1.42;;;;;;;18.29;50.60;102523.75;6237419;23;20000;-64
2022/06/14 07:36:07;;;;;;;3.05;1.17;;;;;;;18.36;50.98;102519.00;6236417;23;20073;-61
2022/06/14 07:38:58;;;;;;;3.33;1.17;;;;;;;18.38;51.67;102525.16;6236970;23;19999;-61
2022/06/14 07:41:51;;;;;;;4.28;1.15;;;;;;;18.56;50.80;102525.34;6236355;23;20116;-61
2022/06/14 07:44:33;;;;;;;4.18;1.65;;;;;;;18.52;50.24;102518.41;6237296;23;20011;-60
2022/06/14 07:47:42;;;;;;;5.95;1.50;;;;;;;18.54;50.92;102519.19;6238897;23;20008;-62
2022/06/14 07:50:13;;;;;;;4.95;1.40;;;;;;;18.44;50.95;102518.72;6224199;23;20012;-61
2022/06/14 07:52:45;;;;;;;4.38;1.15;;;;;;;18.29;51.06;102521.06;6211515;23;20024;-61
2022/06/14 07:55:13;;;;;;;2.05;1.13;;;;;;;18.42;52.21;102517.88;6211033;23;20019;-61
2022/06/14 07:57:41;;;;;;;8.25;1.50;;;;;;;18.42;54.27;102512.56;6237096;23;20456;-62
2022/06/14 08:03:28;;;;;;;4.05;1.42;;;;;;;18.76;51.00;102523.66;6235808;23;20479;-62
2022/06/14 08:05:54;;;;;;;3.30;1.33;;;;;;;18.79;50.86;102526.19;6210395;23;20141;-60
2022/06/14 08:08:25;;;;;;;4.15;1.40;;;;;;;18.91;51.11;102525.66;6237843;23;20574;-60
2022/06/14 08:10:53;;;;;;;5.45;1.63;;;;;;;18.99;51.19;102519.16;6212024;23;20008;-62
2022/06/14 08:13:26;;;;;;;5.40;1.17;;;;;;;19.13;50.14;102518.56;6236242;23;20305;-61
2022/06/14 08:15:55;;;;;;;7.15;1.83;;;;;;;18.97;50.42;102521.00;6236340;23;20460;-62
2022/06/14 08:18:40;;;;;;;4.47;1.58;;;;;;;18.87;51.17;102520.53;6209745;23;20338;-61
2022/06/14 08:21:26;;;;;;;10.32;1.38;;;;;;;18.72;51.08;102514.88;6237019;23;20008;-61
2022/06/14 08:24:04;;;;;;;9.80;2.35;;;;;;;18.91;51.80;102509.63;6237870;23;20425;-62
2022/06/14 08:26:54;;;;;;;9.75;2.13;;;;;;;18.98;51.69;102510.25;6211662;23;20046;-60
2022/06/14 08:29:30;;;;;;;5.13;1.90;;;;;;;19.08;51.84;102504.56;6238275;23;20336;-61
2022/06/14 08:32:27;;;;;;;3.70;1.40;;;;;;;19.24;51.74;102502.06;6236895;23;20008;-62
2022/06/14 08:34:58;;;;;;;7.05;1.70;;;;;;;19.34;51.21;102503.38;6237947;23;20012;-60
2022/06/14 08:37:34;;;;;;;4.10;1.40;;;;;;;19.39;50.69;102503.19;6236496;23;19998;-61
2022/06/14 08:40:30;;;;;;;5.57;1.73;;;;;;;19.34;50.91;102500.72;6211591;23;20004;-62
2022/06/14 08:43:02;;;;;;;6.70;1.73;;;;;;;19.50;50.41;102498.22;6238092;23;20004;-61
2022/06/14 08:45:30;;;;;;;6.75;1.40;;;;;;;19.42;49.76;102495.03;6211584;23;20000;-61
2022/06/14 08:48:01;;;;;;;10.13;1.90;;;;;;;19.36;50.63;102493.50;6236165;23;20443;-62
2022/06/14 08:50:48;;;;;;;3.88;1.42;;;;;;;19.19;50.26;102495.13;6238085;23;20353;-62
2022/06/14 08:53:47;;;;;;;6.15;1.65;;;;;;;19.01;50.69;102499.44;6237792;23;20004;-61
2022/06/14 08:56:31;;;;;;;4.38;1.50;;;;;;;18.86;50.87;102500.09;6215939;23;20004;-61
2022/06/14 08:59:34;;;;;;;7.78;1.67;;;;;;;18.57;50.91;102500.38;6238220;23;20007;-61
2022/06/14 09:02:18;;;;;;;3.28;1.58;;;;;;;18.78;50.66;102495.94;6237406;23;20007;-60
2022/06/14 09:04:59;;;;;;;4.15;1.58;;;;;;;18.99;49.50;102495.94;6209690;23;20011;-63
2022/06/14 09:07:36;;;;;;;3.08;1.52;;;;;;;19.01;49.48;102494.09;6236327;23;20008;-61
2022/06/14 09:10:25;;;;;;;7.63;1.80;;;;;;;19.11;48.57;102497.25;6236155;23;20001;-62
2022/06/14 09:13:03;;;;;;;5.18;2.10;;;;;;;19.06;48.50;102488.56;6235972;23;20729;-63
2022/06/14 09:15:55;;;;;;;4.82;1.80;;;;;;;19.18;48.23;102489.84;6237977;23;20012;-61
2022/06/14 09:18:43;;;;;;;3.10;1.40;;;;;;;19.34;48.19;102494.50;6207860;23;20004;-61
2022/06/14 09:21:46;;;;;;;5.37;1.50;;;;;;;19.39;48.43;102488.00;6210107;23;20083;-62
2022/06/14 09:24:36;;;;;;;3.53;1.65;;;;;;;19.54;47.50;102486.44;6236356;23;20071;-61
2022/06/14 09:27:19;;;;;;;4.80;1.77;;;;;;;19.68;48.19;102482.25;6237973;23;20058;-63
2022/06/14 09:30:05;;;;;;;3.85;1.63;;;;;;;19.98;47.95;102478.22;6237339;23;20376;-61
2022/06/14 09:33:12;;;;;;;3.75;1.27;;;;;;;20.39;46.39;102478.03;6235705;23;20079;-61
2022/06/14 09:35:59;;;;;;;7.93;1.92;;;;;;;20.40;46.27;102474.41;6237290;23;20077;-61
2022/06/14 09:38:59;;;;;;;6.75;1.70;;;;;;;20.74;43.97;102468.28;6237531;23;20065;-61
2022/06/14 09:41:57;;;;;;;4.93;2.05;;;;;;;20.96;44.29;102473.44;6236669;23;20082;-61
2022/06/14 09:44:45;;;;;;;5.10;2.03;;;;;;;21.28;43.87;102472.66;6237393;23;20007;-62
2022/06/14 09:47:34;;;;;;;6.40;1.70;;;;;;;21.54;42.74;102478.41;6236233;23;20019;-63
2022/06/14 09:50:08;;;;;;;4.40;1.85;;;;;;;21.59;44.14;102476.34;6238113;23;20370;-62
2022/06/14 09:52:48;;;;;;;6.82;1.80;;;;;;;22.08;41.55;102472.75;6209774;23;20047;-63
2022/06/14 09:55:43;;;;;;;8.95;1.70;;;;;;;21.82;41.78;102475.09;6236541;23;20012;-63
2022/06/14 09:58:42;;;;;;;5.20;1.90;;;;;;;21.68;45.46;102473.16;6199243;23;20487;-63
2022/06/14 10:01:15;;;;;;;4.90;2.10;;;;;;;21.77;44.99;102474.50;6236544;23;20008;-62
2022/06/14 10:04:12;;;;;;;3.85;1.70;;;;;;;21.89;43.94;102470.25;6234763;23;20440;-61
2022/06/14 10:07:14;;;;;;;4.60;1.52;;;;;;;21.86;43.98;102464.19;6237013;23;20008;-62
2022/06/14 10:10:07;;;;;;;6.05;2.03;;;;;;;22.08;44.50;102453.09;6237319;23;20000;-62
2022/06/14 10:12:48;;;;;;;4.88;1.67;;;;;;;22.16;43.54;102458.03;6237402;23;20024;-63
2022/06/14 10:15:21;;;;;;;5.95;1.77;;;;;;;22.34;43.88;102456.94;6236511;23;20502;-63
2022/06/14 10:18:26;;;;;;;4.22;1.85;;;;;;;22.27;43.05;102449.34;6234946;23;20035;-63
2022/06/14 10:21:07;;;;;;;12.05;1.77;;;;;;;22.18;44.70;102443.56;6218861;23;20444;-65
2022/06/14 10:23:57;;;;;;;6.78;1.95;;;;;;;22.61;43.67;102447.38;6210395;23;20310;-62
2022/06/14 10:30:02;;;;;;;8.15;2.50;;;;;;;22.41;42.22;102438.66;6237842;23;20019;-63
2022/06/14 10:32:36;;;;;;;4.15;1.75;;;;;;;23.00;42.65;102436.13;6237725;23;20520;-62
2022/06/14 10:35:06;;;;;;;6.10;1.70;;;;;;;23.43;41.00;102438.81;6238973;23;20020;-64
2022/06/14 10:37:41;;;;;;;5.60;1.90;;;;;;;23.78;40.27;102433.94;6238812;23;20000;-63
2022/06/14 10:40:23;;;;;;;4.00;1.63;;;;;;;24.00;38.68;102428.00;6211938;23;20420;-63
2022/06/14 10:43:00;;;;;;;5.88;1.73;;;;;;;23.84;39.71;102434.41;6211817;23;20001;-62
2022/06/14 10:45:28;;;;;;;4.85;1.67;;;;;;;24.07;40.97;102423.06;6238540;23;19988;-63
2022/06/14 10:48:12;;;;;;;6.67;2.23;;;;;;;24.15;39.66;102418.09;6238358;23;20341;-62
2022/06/14 10:50:44;;;;;;;5.53;1.95;;;;;;;23.93;39.08;102427.53;6239227;23;20019;-63
2022/06/14 10:53:31;;;;;;;3.95;1.80;;;;;;;24.09;39.47;102422.03;6237937;23;20463;-64
2022/06/14 10:56:09;;;;;;;8.55;2.20;;;;;;;24.29;40.01;102417.13;6238570;23;20106;-64
2022/06/14 10:58:47;;;;;;;8.70;2.47;;;;;;;24.55;38.99;102416.31;6212285;23;20067;-64
2022/06/14 11:01:26;;;;;;;7.68;2.00;;;;;;;24.19;38.62;102411.53;6239089;23;20338;-63
2022/06/14 11:04:25;;;;;;;5.65;2.08;;;;;;;23.84;40.84;102417.41;6236791;23;20429;-64
2022/06/14 11:07:12;;;;;;;7.65;2.38;;;;;;;23.81;38.37;102412.22;6238971;23;20004;-64
2022/06/14 11:09:46;;;;;;;4.15;1.70;;;;;;;24.52;37.42;102405.75;6238696;23;20015;-64
2022/06/14 11:12:45;;;;;;;6.97;2.15;;;;;;;24.19;37.71;102406.13;6210599;23;20016;-65
2022/06/14 11:15:49;;;;;;;3.97;2.38;;;;;;;24.12;37.76;102407.50;6238520;23;20058;-63
2022/06/14 11:18:45;;;;;;;5.18;2.30;;;;;;;23.13;38.25;102403.94;6211087;23;20004;-64
2022/06/14 11:21:15;;;;;;;4.50;2.05;;;;;;;23.32;39.24;102407.19;6238177;23;20012;-65
2022/06/14 11:24:12;;;;;;;5.63;2.67;;;;;;;23.58;39.45;102399.31;6211776;23;20367;-64
2022/06/14 11:27:32;;;;;;;7.32;2.47;;;;;;;23.58;40.67;102403.81;6238390;23;20036;-64
2022/06/14 11:30:18;;;;;;;4.65;2.10;;;;;;;23.09;39.53;102395.22;6149245;23;20060;-65
2022/06/14 11:32:49;;;;;;;9.63;2.53;;;;;;;23.27;39.51;102398.53;6211718;23;20008;-66
2022/06/14 11:35:34;;;;;;;5.25;2.42;;;;;;;22.97;39.16;102396.84;6238063;23;20084;-65
2022/06/14 11:38:05;;;;;;;7.80;2.33;;;;;;;23.24;39.06;102393.41;6237587;23;20083;-64
2022/06/14 11:40:32;;;;;;;10.93;2.20;;;;;;;23.03;41.12;102392.91;6238625;23;20004;-65
2022/06/14 11:43:37;;;;;;;5.53;2.45;;;;;;;22.90;39.72;102393.69;6237036;23;20014;-65
2022/06/14 11:46:22;;;;;;;3.80;2.20;;;;;;;23.40;40.03;102393.31;6210819;23;20008;-65
2022/06/14 11:49:02;;;;;;;4.30;2.13;;;;;;;23.64;38.38;102387.28;6209573;23;20082;-64
2022/06/14 11:51:55;;;;;;;5.20;2.42;;;;;;;24.16;37.13;102383.91;6212320;23;20010;-65
2022/06/14 11:54:26;;;;;;;8.05;2.55;;;;;;;24.44;37.18;102380.19;6216824;23;20015;-64
2022/06/14 11:57:10;;;;;;;4.88;2.47;;;;;;;24.20;34.28;102382.78;6236679;23;20090;-65
2022/06/14 11:59:54;;;;;;;5.18;2.30;;;;;;;24.01;36.63;102380.41;6238121;23;20378;-64
2022/06/14 12:02:43;;;;;;;5.35;2.00;;;;;;;24.51;38.46;102372.56;6237465;23;20076;-64
2022/06/14 12:05:35;;;;;;;9.93;2.47;;;;;;;24.81;38.64;102373.22;6237233;23;20392;-65
2022/06/14 12:08:06;;;;;;;5.70;2.40;;;;;;;24.83;34.99;102365.88;6237934;23;20012;-65
2022/06/14 12:11:00;;;;;;;4.47;2.22;;;;;;;25.51;37.06;102365.53;6238869;23;20015;-65
2022/06/14 12:14:00;;;;;;;6.32;2.17;;;;;;;25.63;33.96;102369.19;6237964;23;20020;-65
2022/06/14 12:16:38;;;;;;;4.50;2.00;;;;;;;25.69;34.02;102365.16;6201433;23;20061;-64
2022/06/14 12:19:08;;;;;;;3.60;2.20;;;;;;;25.68;33.37;102366.16;6235279;23;20436;-64
2022/06/14 12:21:52;;;;;;;5.82;2.40;;;;;;;25.36;33.07;102354.91;6238283;23;20696;-65
2022/06/14 12:24:21;;;;;;;4.10;1.67;;;;;;;26.47;33.86;102356.59;6236793;23;20011;-64
2022/06/14 12:26:47;;;;;;;;;;;;;;;27.30;30.53;102360.94;6237620;23;20015;-65
2022/06/14 12:29:18;;;;;;;4.03;1.90;;;;;;;27.68;33.34;102346.06;6237771;23;19907;-65
2022/06/14 12:32:14;;;;;;;5.05;2.15;;;;;;;27.34;29.61;102354.28;6237557;23;20004;-64
2022/06/14 12:34:49;;;;;;;4.00;2.30;;;;;;;25.41;32.73;102351.88;6201470;23;20095;-64